Time;durP1;ratioP1;P1;durP2;ratioP2;P2;SDS_P1;SDS_P2;PMS_P1;PMS_P2;Temp;Humidity;BMP_temperature;BMP_pressure;BME280_temperature;BME280_humidity;BME280_pressure;Samples;Min_cycle;Max_cycle;Signal;HPM_P1;HPM_P2
2022/05/23 00:00:29;;;;;;;7.30;5.33;;;;;;;15.65;100.00;62472.75;5093941;28;20662;-73
2022/05/23 00:02:56;;;;;;;9.97;6.00;;;;;;;15.32;100.00;62442.88;5093622;28;20227;-72
2022/05/23 00:05:23;;;;;;;8.70;5.57;;;;;;;15.39;100.00;62447.84;5093633;28;20257;-72
2022/05/23 00:07:51;;;;;;;8.50;5.30;;;;;;;14.84;100.00;62389.19;5093418;28;20191;-73
2022/05/23 00:10:21;;;;;;;6.27;5.50;;;;;;;15.40;100.00;62450.94;5085641;28;20203;-74
2022/05/23 00:12:50;;;;;;;10.17;5.67;;;;;;;15.21;100.00;62429.00;5093414;28;20215;-74
2022/05/23 00:15:19;;;;;;;12.37;5.67;;;;;;;15.31;100.00;62439.22;5093266;28;20199;-73
2022/05/23 00:17:46;;;;;;;9.80;5.67;;;;;;;15.42;100.00;62451.09;5093351;28;20249;-74
2022/05/23 00:20:15;;;;;;;6.67;5.80;;;;;;;15.38;100.00;62446.75;5093446;28;20200;-73
2022/05/23 00:22:42;;;;;;;6.30;5.70;;;;;;;15.42;100.00;62451.09;5093224;28;20318;-73
2022/05/23 00:25:12;;;;;;;9.03;5.93;;;;;;;15.06;100.00;62412.31;5093378;28;20253;-73
2022/05/23 00:27:40;;;;;;;9.37;5.80;;;;;;;14.73;100.00;62379.38;5093150;28;20257;-74
2022/05/23 00:30:13;;;;;;;6.77;5.63;;;;;;;15.18;100.00;62425.22;5092950;28;20253;-74
2022/05/23 00:35:27;;;;;;;6.97;6.03;;;;;;;15.00;100.00;62405.88;5093315;28;20203;-76
2022/05/23 00:37:56;;;;;;;11.27;6.40;;;;;;;15.02;100.00;62405.44;5093207;28;20192;-74
2022/05/23 00:40:39;;;;;;;7.37;6.37;;;;;;;15.13;100.00;62420.38;5092628;28;20282;-74
2022/05/23 00:43:13;;;;;;;8.03;7.20;;;;;;;14.93;100.00;62400.91;5093038;28;20239;-73
2022/05/23 00:45:46;;;;;;;9.13;6.80;;;;;;;12.49;100.00;62135.69;5093175;28;20202;-75
2022/05/23 00:48:15;;;;;;;7.87;6.70;;;;;;;14.66;100.00;62367.25;5092897;28;20276;-73
2022/05/23 00:50:45;;;;;;;7.43;6.63;;;;;;;15.13;100.00;62420.38;5096328;28;20204;-74
2022/05/23 00:53:14;;;;;;;9.23;7.03;;;;;;;14.53;100.00;62357.88;5097012;28;20264;-75
2022/05/23 00:55:47;;;;;;;10.67;6.87;;;;;;;15.16;100.00;62420.50;5092502;28;20632;-76
2022/05/23 00:58:20;;;;;;;10.47;7.17;;;;;;;15.06;100.00;62409.75;5093080;28;20200;-74
2022/05/23 01:00:51;;;;;;;11.20;7.00;;;;;;;14.99;100.00;62405.31;5092635;28;20662;-74
2022/05/23 01:03:20;;;;;;;7.73;6.60;;;;;;;14.91;100.00;62393.63;5092497;28;20231;-74
2022/05/23 01:05:51;;;;;;;12.33;7.10;;;;;;;14.83;100.00;62385.03;5092798;28;20192;-73
2022/05/23 01:08:19;;;;;;;7.70;6.63;;;;;;;14.61;100.00;62367.00;5092604;28;20659;-76
2022/05/23 01:10:47;;;;;;;10.77;7.10;;;;;;;14.48;100.00;62352.50;5092976;28;20196;-74
2022/05/23 01:13:15;;;;;;;7.50;6.33;;;;;;;14.82;100.00;62386.50;5092151;28;20203;-72
2022/05/23 01:15:45;;;;;;;9.00;7.00;;;;;;;14.71;100.00;62377.25;5092284;28;20268;-73
2022/05/23 01:18:14;;;;;;;10.57;7.27;;;;;;;14.88;100.00;62390.38;5092003;28;20199;-72
2022/05/23 01:20:44;;;;;;;12.77;6.97;;;;;;;14.55;100.00;62352.34;5098699;28;20196;-72
2022/05/23 01:23:22;;;;;;;7.37;6.50;;;;;;;14.79;100.00;62383.81;5092481;28;20231;-74
2022/05/23 01:25:52;;;;;;;9.07;6.90;;;;;;;14.91;100.00;62396.19;5092386;28;20256;-72
2022/05/23 01:28:19;;;;;;;16.40;6.90;;;;;;;14.92;100.00;62399.81;5092098;28;20655;-72
2022/05/23 01:30:47;;;;;;;19.80;7.27;;;;;;;14.89;100.00;62396.59;5092131;28;20276;-72
2022/05/23 01:33:14;;;;;;;11.83;6.73;;;;;;;14.29;100.00;62333.13;5091820;28;20199;-73
2022/05/23 01:35:42;;;;;;;19.83;8.50;;;;;;;14.62;100.00;62364.97;5074066;28;20202;-74
2022/05/23 01:38:10;;;;;;;11.93;6.87;;;;;;;14.63;100.00;62364.03;5092202;28;20195;-75
2022/05/23 01:40:37;;;;;;;14.33;7.00;;;;;;;14.52;100.00;62354.22;5092158;28;20235;-72
2022/05/23 01:43:07;;;;;;;9.17;6.67;;;;;;;14.25;100.00;62328.25;5091208;28;20569;-74
2022/05/23 01:45:37;;;;;;;8.87;7.03;;;;;;;14.59;100.00;62364.31;5091942;28;20286;-73
2022/05/23 01:48:05;;;;;;;9.90;7.40;;;;;;;14.58;100.00;62363.78;5092079;28;20231;-73
2022/05/23 01:50:32;;;;;;;9.27;6.77;;;;;;;14.54;100.00;62356.38;5092033;28;20235;-74
2022/05/23 01:52:58;;;;;;;10.13;6.53;;;;;;;14.61;100.00;62361.34;5092003;28;20196;-74
2022/05/23 01:55:26;;;;;;;9.67;6.97;;;;;;;14.30;100.00;62334.22;5091873;28;20286;-74
2022/05/23 01:57:54;;;;;;;14.17;6.47;;;;;;;14.21;100.00;62318.84;5073848;28;20253;-73
2022/05/23 02:03:11;;;;;;;9.27;5.90;;;;;;;14.57;100.00;62362.19;5091643;28;20233;-75
2022/05/23 02:05:39;;;;;;;9.00;6.30;;;;;;;14.54;100.00;62353.81;5091885;28;20561;-74
2022/05/23 02:08:06;;;;;;;8.83;6.03;;;;;;;14.64;100.00;62367.69;5091555;28;20202;-73
2022/05/23 02:10:33;;;;;;;7.33;5.53;;;;;;;14.58;100.00;62358.13;5091895;28;20203;-72
2022/05/23 02:13:02;;;;;;;9.80;5.83;;;;;;;14.67;100.00;62372.94;5090630;28;20586;-75
2022/05/23 02:15:32;;;;;;;10.00;6.10;;;;;;;14.61;100.00;62364.44;5091452;28;20288;-74
2022/05/23 02:18:01;;;;;;;8.90;5.83;;;;;;;14.60;100.00;62360.28;5091522;28;20234;-74
2022/05/23 02:20:29;;;;;;;7.70;5.57;;;;;;;14.48;100.00;62352.50;5091022;28;20199;-74
2022/05/23 02:22:57;;;;;;;8.10;5.93;;;;;;;14.31;100.00;62330.16;5091470;28;20793;-73
2022/05/23 02:25:25;;;;;;;7.60;5.63;;;;;;;14.48;100.00;62350.47;5091825;28;20204;-72
2022/05/23 02:27:52;;;;;;;8.17;6.10;;;;;;;14.29;100.00;62328.00;5091589;28;20569;-73
2022/05/23 02:30:19;;;;;;;8.47;6.50;;;;;;;13.99;100.00;62295.72;5091376;28;20200;-72
2022/05/23 02:32:48;;;;;;;8.77;6.30;;;;;;;14.31;100.00;62332.72;5091263;28;20208;-74
2022/05/23 02:35:16;;;;;;;10.27;5.90;;;;;;;14.05;100.00;62307.31;5091159;28;20779;-73
2022/05/23 02:37:43;;;;;;;10.57;6.60;;;;;;;14.08;100.00;62310.00;5091587;28;20192;-74
2022/05/23 02:40:12;;;;;;;7.13;5.67;;;;;;;14.15;100.00;62323.19;5091018;28;20199;-74
2022/05/23 02:42:39;;;;;;;8.77;5.70;;;;;;;14.23;100.00;62324.09;5091283;28;20663;-73
2022/05/23 02:45:07;;;;;;;7.60;5.83;;;;;;;13.95;100.00;62288.88;5091326;28;20196;-73
2022/05/23 02:47:35;;;;;;;9.40;6.00;;;;;;;14.06;100.00;62302.72;5091314;28;20268;-74
2022/05/23 02:50:04;;;;;;;6.70;5.67;;;;;;;14.14;100.00;62317.00;5091614;28;20255;-74
2022/05/23 02:52:32;;;;;;;11.33;5.83;;;;;;;13.37;100.00;62229.09;5091409;28;20257;-73
2022/05/23 02:55:00;;;;;;;7.80;5.43;;;;;;;13.66;100.00;62259.75;5094478;28;20196;-72
2022/05/23 02:57:29;;;;;;;10.07;6.47;;;;;;;14.08;100.00;62307.97;5095265;28;20277;-72
2022/05/23 02:59:55;;;;;;;6.70;6.00;;;;;;;13.97;100.00;62296.16;5094826;28;20260;-72
2022/05/23 03:05:09;;;;;;;6.70;5.83;;;;;;;13.89;100.00;62287.53;5094931;28;20692;-73
2022/05/23 03:07:36;;;;;;;8.87;5.90;;;;;;;13.84;100.00;62284.19;5094965;28;20195;-72
2022/05/23 03:10:05;;;;;;;7.23;5.90;;;;;;;14.02;100.00;62301.53;5094329;28;20199;-74
2022/05/23 03:12:34;;;;;;;7.63;6.70;;;;;;;14.18;100.00;62321.28;5094248;28;20249;-72
2022/05/23 03:15:01;;;;;;;9.77;6.40;;;;;;;14.25;100.00;62326.25;5076732;28;20207;-74
2022/05/23 03:17:28;;;;;;;11.87;6.20;;;;;;;14.32;100.00;62333.25;5094788;28;20204;-74
2022/05/23 03:19:54;;;;;;;8.30;6.30;;;;;;;14.30;100.00;62331.66;5094622;28;20590;-72
2022/05/23 03:27:53;;;;;;;14.93;6.73;;;;;;;14.59;100.00;62361.75;5094692;28;20203;-73
2022/05/23 03:30:20;;;;;;;13.13;6.43;;;;;;;14.66;100.00;62371.84;5094226;28;20694;-74
2022/05/23 03:32:47;;;;;;;14.17;6.73;;;;;;;14.52;100.00;62351.66;5094269;28;20196;-74
2022/05/23 03:35:13;;;;;;;12.67;7.47;;;;;;;14.42;100.00;62346.56;5093851;28;20662;-74
2022/05/23 03:37:42;;;;;;;11.30;6.77;;;;;;;14.26;100.00;62324.78;5094133;28;20582;-72
2022/05/23 03:40:10;;;;;;;9.93;7.20;;;;;;;14.49;100.00;62353.56;5094003;28;20238;-74
2022/05/23 03:42:37;;;;;;;12.90;6.30;;;;;;;14.58;100.00;62361.22;5094566;28;20199;-73
2022/05/23 03:45:06;;;;;;;11.43;6.90;;;;;;;13.97;100.00;62293.59;5093823;28;20231;-74
2022/05/23 03:47:33;;;;;;;13.23;6.70;;;;;;;14.55;100.00;62360.03;5094128;28;20196;-73
2022/05/23 03:50:01;;;;;;;18.17;7.70;;;;;;;14.63;100.00;62369.16;5093834;28;20196;-71
2022/05/23 03:52:29;;;;;;;19.60;8.60;;;;;;;14.48;100.00;62347.38;5094217;28;20676;-75
2022/05/23 03:54:57;;;;;;;18.87;7.87;;;;;;;13.75;100.00;62272.50;5094072;28;20200;-74
2022/05/23 03:57:24;;;;;;;13.37;7.00;;;;;;;14.57;100.00;62357.06;5093867;28;20203;-74
2022/05/23 03:59:52;;;;;;;14.67;7.40;;;;;;;14.43;100.00;62342.00;5092413;28;20203;-74
2022/05/23 04:02:20;;;;;;;14.63;7.30;;;;;;;14.64;100.00;62369.69;5093809;28;20196;-73
2022/05/23 04:04:48;;;;;;;16.17;7.70;;;;;;;14.34;100.00;62335.97;5093049;28;20259;-74
2022/05/23 04:07:15;;;;;;;18.57;7.30;;;;;;;14.85;100.00;62392.31;5093332;28;20751;-72
2022/05/23 04:09:42;;;;;;;15.47;6.60;;;;;;;14.85;100.00;62387.16;5093407;28;20207;-74
2022/05/23 04:12:11;;;;;;;14.97;7.00;;;;;;;15.03;100.00;62406.53;5093657;28;20196;-72
2022/05/23 04:14:40;;;;;;;14.07;7.20;;;;;;;14.94;100.00;62397.38;5092671;28;20199;-72
2022/05/23 04:17:08;;;;;;;30.27;7.90;;;;;;;14.92;100.00;62399.81;5093321;28;20225;-75
2022/05/23 04:19:35;;;;;;;22.20;7.90;;;;;;;15.20;100.00;62427.38;5092206;28;20642;-73
2022/05/23 04:22:02;;;;;;;26.13;7.83;;;;;;;15.35;100.00;62443.00;5092621;28;20256;-73
2022/05/23 04:24:29;;;;;;;13.43;7.93;;;;;;;15.58;100.00;62465.75;5093095;28;20255;-76
2022/05/23 04:26:57;;;;;;;11.83;8.77;;;;;;;15.72;100.00;62485.41;5092403;28;20191;-73
2022/05/23 04:29:26;;;;;;;13.20;9.80;;;;;;;15.38;100.00;62446.75;5093672;28;20196;-73
2022/05/23 04:31:54;;;;;;;14.70;9.30;;;;;;;15.89;100.00;62504.25;5093534;28;20198;-72
2022/05/23 04:37:05;;;;;;;16.43;7.83;;;;;;;16.16;100.00;62529.69;5093200;28;20271;-73
2022/05/23 04:39:32;;;;;;;21.87;8.43;;;;;;;16.38;100.00;62550.81;5092856;28;20196;-73
2022/05/23 04:42:03;;;;;;;16.93;8.83;;;;;;;16.38;100.00;62550.81;5093211;28;20232;-75
2022/05/23 04:44:32;;;;;;;13.57;8.27;;;;;;;16.23;100.00;62535.19;5092813;28;20231;-73
2022/05/23 04:49:51;;;;;;;9.80;7.70;;;;;;;16.85;100.00;62607.19;5035470;28;20208;-73
2022/05/23 04:52:26;;;;;;;12.67;6.80;;;;;;;16.79;100.00;62605.84;5093134;28;20291;-75
2022/05/23 04:54:55;;;;;;;14.63;7.17;;;;;;;17.05;100.00;62623.03;5092701;28;20650;-74
2022/05/23 04:57:27;;;;;;;22.17;7.27;;;;;;;17.11;100.00;62632.09;5092425;28;20723;-73
2022/05/23 04:59:55;;;;;;;16.77;7.03;;;;;;;17.34;100.00;62653.78;5092907;28;20736;-73
2022/05/23 05:02:23;;;;;;;12.20;7.33;;;;;;;17.56;100.00;62677.53;5092002;28;20203;-72
2022/05/23 05:04:50;;;;;;;9.73;7.00;;;;;;;17.58;100.00;62680.22;5092551;28;20283;-73
2022/05/23 05:07:17;;;;;;;12.53;6.37;;;;;;;17.71;100.00;62694.25;5092332;28;20204;-73
2022/05/23 05:09:44;;;;;;;12.03;7.60;;;;;;;17.87;100.00;62710.44;5092344;28;20577;-73
2022/05/23 05:12:13;;;;;;;13.50;6.97;;;;;;;18.22;100.00;62750.78;5086905;28;20203;-76
2022/05/23 05:14:41;;;;;;;18.60;7.20;;;;;;;18.32;100.00;62761.56;5074467;28;20253;-73
2022/05/23 05:17:09;;;;;;;14.37;7.93;;;;;;;18.03;100.00;62730.28;5088403;28;20634;-74
2022/05/23 05:19:36;;;;;;;14.40;7.60;;;;;;;17.56;100.00;62683.22;5070239;28;20585;-76
2022/05/23 05:22:04;;;;;;;11.73;6.97;;;;;;;18.15;100.00;62741.16;5088435;28;20191;-76
2022/05/23 05:24:32;;;;;;;11.20;6.27;;;;;;;17.81;100.00;62698.81;5089414;28;20230;-74
2022/05/23 05:27:00;;;;;;;12.30;6.57;;;;;;;18.25;100.00;62751.97;5090804;28;20296;-74
2022/05/23 05:29:27;;;;;;;13.77;6.70;;;;;;;18.30;100.00;62761.97;5072303;28;20250;-73
2022/05/23 05:31:57;;;;;;;8.20;6.43;;;;;;;18.63;100.00;62792.47;5073005;28;20284;-75
2022/05/23 05:34:32;;;;;;;11.83;6.57;;;;;;;18.93;100.00;62830.03;5070592;28;20228;-73
2022/05/23 05:37:05;;;;;;;14.30;6.03;;;;;;;19.28;100.00;62862.66;5071254;28;20261;-74
2022/05/23 05:39:36;;;;;;;7.97;6.27;;;;;;;19.59;100.00;62900.28;5069687;28;20265;-74
2022/05/23 05:42:09;;;;;;;11.80;6.70;;;;;;;19.76;100.00;62918.66;5070563;28;20242;-72
2022/05/23 05:44:38;;;;;;;12.30;6.00;;;;;;;19.51;100.00;62886.47;5071279;28;20224;-76
2022/05/23 05:47:10;;;;;;;12.70;6.20;;;;;;;19.91;100.00;62929.69;5071586;28;20200;-75
2022/05/23 05:49:42;;;;;;;11.23;6.88;;;;;;;19.57;100.00;62896.06;5070784;28;20425;-75
2022/05/23 05:52:15;;;;;;;12.60;6.53;;;;;;;19.41;100.00;62880.81;5088778;28;20211;-76
2022/05/23 05:54:43;;;;;;;12.17;6.60;;;;;;;19.13;100.00;62845.94;5091958;28;20199;-76
2022/05/23 05:57:12;;;;;;;9.50;6.80;;;;;;;18.80;100.00;62810.81;5091838;28;20200;-74
2022/05/23 05:59:40;;;;;;;7.77;6.27;;;;;;;18.89;100.00;62820.00;5091377;28;20243;-73
2022/05/23 06:02:07;;;;;;;9.73;6.37;;;;;;;19.07;100.00;62842.56;5089904;28;20695;-74
2022/05/23 06:04:35;;;;;;;15.77;6.60;;;;;;;19.40;100.00;62874.59;5071461;28;20223;-73
2022/05/23 06:12:34;;;;;;;16.00;6.77;;;;;;;20.31;100.00;62972.94;5074841;28;20215;-73
2022/05/23 06:15:02;;;;;;;12.50;6.53;;;;;;;20.47;100.00;62989.72;5070810;28;20261;-75
2022/05/23 06:17:29;;;;;;;10.97;5.87;;;;;;;19.90;100.00;62926.03;5075440;28;20200;-73
2022/05/23 06:19:56;;;;;;;12.73;6.50;;;;;;;20.76;100.00;63021.63;5091137;28;20210;-75
2022/05/23 06:22:27;;;;;;;9.40;5.47;;;;;;;21.15;100.00;63062.75;5091278;28;20199;-74
2022/05/23 06:24:53;;;;;;;11.47;5.43;;;;;;;21.32;100.00;63086.34;5091492;28;20656;-73
2022/05/23 06:27:20;;;;;;;13.83;5.20;;;;;;;21.47;100.00;63102.59;5091158;28;20611;-73
2022/05/23 06:29:47;;;;;;;12.67;5.40;;;;;;;21.42;100.00;63092.53;5094548;28;20203;-72
2022/05/23 06:32:16;;;;;;;8.50;4.63;;;;;;;21.46;100.00;63096.31;5095094;28;20688;-73
2022/05/23 06:34:44;;;;;;;11.67;5.30;;;;;;;21.61;100.00;63112.56;5095124;28;20262;-73
2022/05/23 06:37:11;;;;;;;12.33;5.33;;;;;;;21.71;100.00;63123.91;5095203;28;20211;-75
2022/05/23 06:39:40;;;;;;;7.83;3.77;;;;;;;21.80;100.00;63133.66;5095151;28;20248;-76
2022/05/23 06:42:07;;;;;;;7.90;3.60;;;;;;;22.18;100.00;63179.47;5095146;28;20289;-74
2022/05/23 06:44:34;;;;;;;9.77;3.83;;;;;;;22.34;100.00;63191.63;5095421;28;20231;-75
2022/05/23 06:47:02;;;;;;;11.87;3.30;;;;;;;22.39;100.00;63202.25;5095316;28;20206;-76
2022/05/23 06:49:29;;;;;;;5.27;2.67;;;;;;;22.21;100.00;63177.53;5095039;28;20203;-74
2022/05/23 06:51:56;;;;;;;8.13;2.70;;;;;;;22.31;100.00;63188.38;5094851;28;20261;-75
2022/05/23 06:54:24;;;;;;;9.30;2.70;;;;;;;22.48;100.00;63206.78;5094989;28;20200;-75
2022/05/23 06:56:52;;;;;;;6.23;3.17;;;;;;;23.10;100.00;63272.94;5095284;28;20260;-74
2022/05/23 06:59:20;;;;;;;11.57;3.30;;;;;;;23.50;100.00;63316.31;5094761;28;20207;-72
2022/05/23 07:01:47;;;;;;;6.13;2.50;;;;;;;23.57;100.00;63323.91;5094908;28;20203;-76
2022/05/23 07:04:15;;;;;;;5.43;3.03;;;;;;;23.62;100.00;63328.78;5094911;28;20345;-73
2022/05/23 07:12:23;;;;;;;4.97;2.77;;;;;;;23.90;100.00;63359.16;5095027;28;20261;-74
2022/05/23 07:14:51;;;;;;;2.80;2.40;;;;;;;23.90;100.00;63361.75;5095364;28;20261;-74
2022/05/23 07:17:19;;;;;;;9.00;2.97;;;;;;;23.91;100.00;63360.78;5095006;28;20203;-72
2022/05/23 07:19:46;;;;;;;9.33;3.00;;;;;;;23.68;100.00;63335.84;5094784;28;20287;-74
2022/05/23 07:22:13;;;;;;;7.77;2.70;;;;;;;24.04;100.00;63374.91;5094641;28;20235;-73
2022/05/23 07:24:40;;;;;;;12.60;3.37;;;;;;;23.97;100.00;63367.28;5094223;28;20227;-73
2022/05/23 07:27:07;;;;;;;12.90;3.67;;;;;;;24.06;100.00;63376.53;5076475;28;20231;-76
2022/05/23 07:29:35;;;;;;;19.20;3.10;;;;;;;23.75;100.00;63346.03;5094712;28;20204;-74
2022/05/23 07:32:05;;;;;;;5.10;2.50;;;;;;;23.46;100.00;63311.97;5094585;28;20625;-75
2022/05/23 07:34:33;;;;;;;4.47;2.23;;;;;;;23.47;100.00;63310.44;5098412;28;20223;-73
2022/05/23 07:37:00;;;;;;;3.70;2.77;;;;;;;23.40;100.00;63305.47;5094784;28;20192;-72
2022/05/23 07:39:27;;;;;;;6.30;2.43;;;;;;;23.49;100.00;63315.22;5094289;28;20223;-73
2022/05/23 07:41:55;;;;;;;5.23;2.60;;;;;;;23.38;100.00;63303.84;5093073;28;20231;-76
2022/05/23 07:44:24;;;;;;;9.37;2.40;;;;;;;23.33;100.00;63297.88;5094067;28;20230;-75
2022/05/23 07:46:53;;;;;;;6.30;2.50;;;;;;;23.46;100.00;63311.97;5093971;28;20210;-73
2022/05/23 07:49:21;;;;;;;4.33;2.33;;;;;;;23.63;100.00;63335.59;5094136;28;20361;-73
2022/05/23 07:51:49;;;;;;;8.33;2.20;;;;;;;24.00;100.00;63375.75;5091623;28;20188;-76
2022/05/23 08:02:30;;;;;;;10.43;3.17;;;;;;;24.20;100.00;63391.72;5093491;28;20608;-73
2022/05/23 08:04:58;;;;;;;7.13;2.47;;;;;;;24.49;100.00;63423.19;5093654;28;20231;-74
2022/05/23 08:07:28;;;;;;;3.80;2.67;;;;;;;24.76;100.00;63451.97;5094956;28;20202;-72
2022/05/23 08:09:55;;;;;;;5.77;2.10;;;;;;;24.87;100.00;63463.94;5094077;28;20196;-76
2022/05/23 08:12:22;;;;;;;24.13;3.57;;;;;;;23.48;100.00;63314.66;5093187;28;20204;-75
2022/05/23 08:14:48;;;;;;;15.60;2.80;;;;;;;23.53;100.00;63316.97;5093025;28;20207;-75
2022/05/23 08:17:15;;;;;;;12.97;2.57;;;;;;;23.38;100.00;63303.84;5092393;28;20200;-74
2022/05/23 08:19:44;;;;;;;14.57;3.00;;;;;;;23.61;100.00;63323.03;5091872;28;20192;-74
2022/05/23 08:22:10;;;;;;;13.87;2.90;;;;;;;23.97;100.00;63364.13;5093384;28;20230;-74
2022/05/23 08:24:37;;;;;;;5.17;2.43;;;;;;;23.96;100.00;63360.47;5093442;28;20706;-75
2022/05/23 08:27:05;;;;;;;14.73;2.50;;;;;;;24.25;100.00;63395.06;5092701;28;20195;-73
2022/05/23 08:29:32;;;;;;;9.57;2.33;;;;;;;24.51;100.00;63425.34;5090836;28;20236;-73
2022/05/23 08:32:00;;;;;;;6.67;2.63;;;;;;;24.92;100.00;63469.34;5072853;28;20662;-73
2022/05/23 08:34:27;;;;;;;19.77;2.73;;;;;;;24.93;100.00;63473.06;5090834;28;20261;-73
2022/05/23 08:36:58;;;;;;;7.87;2.17;;;;;;;24.69;100.00;63439.16;5090936;28;20200;-74
2022/05/23 08:39:25;;;;;;;9.07;2.17;;;;;;;24.74;100.00;63449.81;5091374;28;20248;-76
2022/05/23 08:41:53;;;;;;;3.70;2.40;;;;;;;24.58;100.00;63427.75;5092879;28;20235;-75
2022/05/23 08:44:28;;;;;;;12.50;2.50;;;;;;;24.53;100.00;63427.00;5092848;28;20261;-74
2022/05/23 08:47:05;;;;;;;11.57;2.60;;;;;;;24.33;100.00;63405.28;5092994;28;20199;-75
2022/05/23 08:49:45;;;;;;;7.87;2.40;;;;;;;24.08;100.00;63373.50;5092763;28;20635;-74
2022/05/23 08:52:17;;;;;;;6.30;2.03;;;;;;;23.39;100.00;63304.38;5092038;28;20208;-73
2022/05/23 08:54:52;;;;;;;4.40;1.80;;;;;;;23.96;100.00;63366.22;5092700;28;20651;-75
2022/05/23 08:57:36;;;;;;;8.63;2.27;;;;;;;24.19;100.00;63391.19;5092974;28;20261;-74
2022/05/23 09:00:08;;;;;;;6.37;2.10;;;;;;;24.08;100.00;63378.69;5092019;28;20199;-74
2022/05/23 09:02:39;;;;;;;7.20;2.10;;;;;;;23.85;100.00;63356.31;5092401;28;20192;-73
2022/05/23 09:05:10;;;;;;;9.93;2.20;;;;;;;24.49;100.00;63422.66;5092705;28;20315;-73
2022/05/23 09:07:44;;;;;;;4.20;1.90;;;;;;;24.17;100.00;63383.78;5092196;28;20196;-73
2022/05/23 09:10:15;;;;;;;4.17;2.00;;;;;;;24.23;100.00;63394.97;5092127;28;20288;-73
2022/05/23 09:12:42;;;;;;;3.20;1.73;;;;;;;24.15;100.00;63389.44;5091238;28;20195;-74
2022/05/23 09:15:10;;;;;;;14.27;2.50;;;;;;;23.88;100.00;63356.97;5092086;28;20195;-75
2022/05/23 09:17:44;;;;;;;10.07;2.40;;;;;;;23.57;100.00;63318.69;5092166;28;20200;-74
2022/05/23 09:20:15;;;;;;;12.60;2.40;;;;;;;23.52;100.00;63318.47;5092305;28;20207;-75
2022/05/23 09:22:49;;;;;;;4.20;2.20;;;;;;;23.48;100.00;63314.16;5092046;28;20584;-72
2022/05/23 09:25:20;;;;;;;6.93;2.17;;;;;;;23.37;100.00;63302.22;5092002;28;20674;-73
2022/05/23 09:27:52;;;;;;;4.60;1.97;;;;;;;23.50;98.31;63313.72;5092169;28;20273;-75
2022/05/23 09:30:22;;;;;;;15.87;2.30;;;;;;;23.37;100.00;63297.00;5091758;28;20200;-73
2022/05/23 09:32:53;;;;;;;3.23;1.90;;;;;;;23.19;100.00;63280.06;5091992;28;20203;-73
2022/05/23 09:35:22;;;;;;;4.10;2.27;;;;;;;23.11;100.00;63274.00;5091956;28;20312;-73
2022/05/23 09:38:07;;;;;;;3.27;2.00;;;;;;;22.64;100.00;63221.53;5096627;28;20207;-75
2022/05/23 09:40:37;;;;;;;3.50;1.93;;;;;;;22.97;100.00;63258.81;5092016;28;20239;-74
2022/05/23 09:49:10;;;;;;;9.47;2.37;;;;;;;24.73;100.00;63446.13;5092200;28;20241;-74
2022/05/23 09:51:55;;;;;;;6.40;2.13;;;;;;;24.72;100.00;63447.59;5091811;28;20195;-75
2022/05/23 09:54:29;;;;;;;4.33;2.33;;;;;;;25.01;100.00;63479.13;5091750;28;20204;-72
2022/05/23 09:56:58;;;;;;;5.77;2.57;;;;;;;25.51;91.92;63530.84;5091564;28;20203;-75
2022/05/23 09:59:29;;;;;;;8.53;2.00;;;;;;;26.54;84.66;63644.31;5091283;28;20196;-72
2022/05/23 10:01:57;;;;;;;8.57;2.30;;;;;;;26.80;76.64;63672.06;5073477;28;20660;-74
2022/05/23 10:04:27;;;;;;;5.23;2.03;;;;;;;27.01;77.79;63689.66;5090689;28;20268;-74
2022/05/23 10:06:54;;;;;;;10.17;2.20;;;;;;;27.00;76.73;63689.13;5091198;28;20677;-74
2022/05/23 10:09:40;;;;;;;6.83;2.40;;;;;;;27.12;74.92;63706.88;5090932;28;20276;-74
2022/05/23 10:12:10;;;;;;;20.43;2.40;;;;;;;27.17;73.59;63707.63;5091724;28;20261;-73
2022/05/23 10:15:11;;;;;;;4.60;1.97;;;;;;;26.95;72.75;63688.91;5091477;28;20666;-73
2022/05/23 10:17:40;;;;;;;5.10;2.20;;;;;;;26.35;76.42;63628.88;5091578;28;20213;-75
2022/05/23 10:20:25;;;;;;;8.47;3.60;;;;;;;26.95;75.69;63686.31;5092075;28;20676;-74
2022/05/23 10:22:58;;;;;;;4.87;2.10;;;;;;;27.00;79.10;63689.13;5091764;28;20624;-75
2022/05/23 10:25:33;;;;;;;4.47;2.07;;;;;;;26.81;75.32;63673.16;5091634;28;20770;-72
2022/05/23 10:28:06;;;;;;;7.47;2.33;;;;;;;27.29;77.81;63725.91;5092235;28;20268;-74
2022/05/23 10:30:36;;;;;;;5.33;2.30;;;;;;;27.15;78.48;63710.13;5092001;28;20195;-73
2022/05/23 10:33:08;;;;;;;4.37;1.93;;;;;;;27.14;72.79;63709.06;5091479;28;20196;-75
2022/05/23 10:35:41;;;;;;;2.67;1.83;;;;;;;27.15;77.39;63708.06;5091499;28;20226;-73
2022/05/23 10:43:59;;;;;;;5.50;2.10;;;;;;;28.61;63.26;63868.03;5091971;28;20203;-73
2022/05/23 10:46:28;;;;;;;16.17;2.67;;;;;;;28.61;61.36;63865.97;5091384;28;20228;-75
2022/05/23 10:49:01;;;;;;;3.40;1.60;;;;;;;28.55;57.81;63862.06;5091046;28;20643;-74
2022/05/23 10:51:42;;;;;;;3.93;1.90;;;;;;;27.63;58.20;63761.84;5091535;28;20640;-74
2022/05/23 10:54:27;;;;;;;4.67;1.77;;;;;;;28.11;58.42;63814.66;5091378;28;20234;-74
2022/05/23 10:57:05;;;;;;;6.50;2.00;;;;;;;28.36;58.08;63846.56;5091389;28;20619;-74
2022/05/23 10:59:40;;;;;;;6.97;2.10;;;;;;;28.61;55.46;63868.59;5091583;28;20283;-75
2022/05/23 11:02:20;;;;;;;3.27;2.00;;;;;;;28.54;54.64;63860.94;5091449;28;20666;-73
2022/05/23 11:05:02;;;;;;;7.07;2.20;;;;;;;27.99;57.07;63801.06;5091197;28;20196;-74
2022/05/23 11:07:40;;;;;;;2.80;1.70;;;;;;;28.14;57.21;63817.38;5091065;28;20196;-74
2022/05/23 11:10:17;;;;;;;4.07;1.67;;;;;;;27.55;56.09;63751.59;5091273;28;20200;-74
2022/05/23 11:12:53;;;;;;;2.50;1.80;;;;;;;27.83;56.19;63778.38;5091424;28;20556;-75
2022/05/23 11:15:37;;;;;;;2.60;1.70;;;;;;;27.63;56.19;63761.84;5091552;28;20624;-73
2022/05/23 11:18:12;;;;;;;2.23;1.50;;;;;;;27.27;57.86;63723.72;5094635;28;20206;-73
2022/05/23 11:20:42;;;;;;;2.53;1.53;;;;;;;27.01;60.15;63695.44;5094691;28;20260;-75
2022/05/23 11:23:25;;;;;;;6.03;2.07;;;;;;;27.38;63.49;63735.72;5094295;28;20253;-75
2022/05/23 11:25:58;;;;;;;3.00;1.70;;;;;;;27.78;58.44;63778.72;5094683;28;20273;-74
2022/05/23 11:34:10;;;;;;;3.07;1.73;;;;;;;27.78;60.17;63775.53;5096817;28;20373;-74
2022/05/23 11:36:56;;;;;;;6.03;1.90;;;;;;;27.86;59.20;63786.88;5096883;28;20253;-75
2022/05/23 11:39:51;;;;;;;2.50;1.80;;;;;;;27.78;55.48;63778.72;5094429;28;20286;-72
2022/05/23 11:42:29;;;;;;;9.90;1.90;;;;;;;27.43;55.50;63741.16;5077039;28;20330;-74
2022/05/23 11:48:03;;;;;;;4.27;2.00;;;;;;;28.14;56.33;63817.38;5098927;28;20194;-72
2022/05/23 11:50:34;;;;;;;8.93;2.33;;;;;;;28.50;59.07;63856.03;5096653;28;20265;-73
2022/05/23 11:53:12;;;;;;;4.20;1.87;;;;;;;28.77;56.11;63886.00;5097329;28;20660;-74
2022/05/23 11:56:01;;;;;;;6.40;2.20;;;;;;;29.24;53.37;63936.16;5097489;28;20195;-74
2022/05/23 11:58:47;;;;;;;9.10;2.37;;;;;;;29.41;53.85;63954.66;5098811;28;20204;-74
2022/05/23 12:01:26;;;;;;;8.87;2.07;;;;;;;29.85;52.95;64002.66;5079745;28;20242;-72
2022/05/23 12:04:24;;;;;;;26.23;3.00;;;;;;;29.94;49.18;64012.47;5097417;28;20199;-74
2022/05/23 12:06:51;;;;;;;4.27;2.13;;;;;;;29.29;50.73;63938.97;5014059;28;20320;-75
2022/05/23 12:09:35;;;;;;;25.50;2.73;;;;;;;29.69;52.23;63985.19;5077986;28;20284;-73
2022/05/23 12:12:39;;;;;;;3.33;1.87;;;;;;;29.34;49.83;63947.03;5093995;28;20566;-72
2022/05/23 12:15:06;;;;;;;5.07;1.97;;;;;;;29.69;53.00;63985.19;5094690;28;20778;-73
2022/05/23 12:17:35;;;;;;;16.27;3.27;;;;;;;29.97;51.53;64013.66;5093808;28;20557;-73
2022/05/23 12:20:22;;;;;;;4.43;2.00;;;;;;;29.87;49.26;64004.84;5094386;28;20199;-74
2022/05/23 12:23:15;;;;;;;5.20;1.90;;;;;;;29.02;47.99;63910.63;5093685;28;20581;-74
2022/05/23 12:25:42;;;;;;;5.20;1.93;;;;;;;28.89;51.17;63898.53;5093248;28;20253;-72
2022/05/23 12:28:21;;;;;;;5.73;2.00;;;;;;;28.94;53.07;63909.78;5092827;28;20573;-74
2022/05/23 12:31:22;;;;;;;4.27;2.37;;;;;;;29.25;51.46;63937.22;5093169;28;20199;-75
2022/05/23 12:34:08;;;;;;;7.77;2.63;;;;;;;29.65;51.41;63978.75;5093115;28;20234;-75
2022/05/23 12:36:47;;;;;;;6.53;2.07;;;;;;;29.09;50.87;63920.88;5093647;28;20288;-73
2022/05/23 12:39:44;;;;;;;7.43;2.13;;;;;;;28.91;49.41;63901.25;5092430;28;20639;-75